createdAt,value
2023-05-23T00:02:13.294Z,100834.66
2023-05-23T00:04:43.147Z,100837.13
2023-05-23T00:07:10.577Z,100838.63
2023-05-23T00:09:37.817Z,100837.53
2023-05-23T00:12:07.635Z,100846.38
2023-05-23T00:14:40.291Z,100844.94
2023-05-23T00:17:10.740Z,100841.22
2023-05-23T00:19:41.628Z,100845.91
2023-05-23T00:22:09.613Z,100837.78
2023-05-23T00:24:38.825Z,100833.13
2023-05-23T00:27:05.965Z,100826.25
2023-05-23T00:29:35.243Z,100829.19
2023-05-23T00:32:04.652Z,100832.88
2023-05-23T00:34:31.697Z,100829.66
2023-05-23T00:36:58.764Z,100834.31
2023-05-23T00:39:26.997Z,100832.84
2023-05-23T00:41:54.081Z,100830.78
2023-05-23T00:44:22.072Z,100829.59
2023-05-23T00:46:58.958Z,100828.75
2023-05-23T00:49:28.617Z,100832.09
2023-05-23T00:51:56.011Z,100833.72
2023-05-23T00:54:31.274Z,100838.91
2023-05-23T00:57:00.926Z,100836.06
2023-05-23T00:59:30.483Z,100830.47
2023-05-23T01:02:00.346Z,100839.78
2023-05-23T01:04:29.590Z,100832.41
2023-05-23T01:07:00.812Z,100830.31
2023-05-23T01:09:29.271Z,100828.22
2023-05-23T01:12:23.829Z,100821.38
2023-05-23T01:15:11.058Z,100820.00
2023-05-23T01:18:16.619Z,100819.03
2023-05-23T01:20:52.878Z,100819.22
2023-05-23T01:23:59.452Z,100814.75
2023-05-23T01:26:54.292Z,100809.66
2023-05-23T01:29:34.790Z,100808.13
2023-05-23T01:32:04.805Z,100815.09
2023-05-23T01:34:37.482Z,100812.72
2023-05-23T01:37:14.820Z,100817.19
2023-05-23T01:39:45.408Z,100817.13
2023-05-23T01:42:13.483Z,100815.75
2023-05-23T01:44:41.042Z,100811.94
2023-05-23T01:47:10.042Z,100819.81
2023-05-23T01:49:37.933Z,100815.13
2023-05-23T01:52:05.902Z,100823.75
2023-05-23T01:54:35.665Z,100818.84
2023-05-23T01:57:05.887Z,100817.59
2023-05-23T01:59:38.566Z,100806.34
2023-05-23T02:02:05.961Z,100811.84
2023-05-23T02:04:33.208Z,100818.41
2023-05-23T02:07:00.310Z,100814.13
2023-05-23T02:09:27.246Z,100817.03
2023-05-23T02:11:54.347Z,100810.13
2023-05-23T02:14:21.837Z,100811.06
2023-05-23T02:16:53.998Z,100817.38
2023-05-23T02:19:25.673Z,100822.31
2023-05-23T02:21:57.455Z,100818.53
2023-05-23T02:24:24.462Z,100818.94
2023-05-23T02:26:52.602Z,100824.47
2023-05-23T02:29:19.813Z,100825.31
2023-05-23T02:31:49.271Z,100832.88
2023-05-23T02:34:17.611Z,100822.34
2023-05-23T02:36:44.654Z,100829.94
2023-05-23T02:39:14.376Z,100834.22
2023-05-23T02:41:41.619Z,100834.63
2023-05-23T02:44:08.691Z,100831.84
2023-05-23T02:46:35.776Z,100832.06
2023-05-23T02:49:02.885Z,100834.41
2023-05-23T02:51:29.819Z,100830.50
2023-05-23T02:53:56.785Z,100831.34
2023-05-23T02:56:23.795Z,100832.19
2023-05-23T02:58:51.103Z,100832.50
2023-05-23T03:01:18.847Z,100839.84
2023-05-23T03:03:49.577Z,100835.00
2023-05-23T03:06:17.165Z,100841.31
2023-05-23T03:08:44.820Z,100846.34
2023-05-23T03:11:11.866Z,100838.53
2023-05-23T03:13:38.993Z,100840.91
2023-05-23T03:16:06.454Z,100840.88
2023-05-23T03:18:33.610Z,100845.31
2023-05-23T03:21:00.624Z,100843.19
2023-05-23T03:23:27.613Z,100837.91
2023-05-23T03:25:54.603Z,100850.41
2023-05-23T03:28:21.711Z,100844.13
2023-05-23T03:30:48.726Z,100841.53
2023-05-23T03:33:16.027Z,100839.69
2023-05-23T03:35:44.702Z,100828.72
2023-05-23T03:38:11.730Z,100828.03
2023-05-23T03:40:38.797Z,100832.66
2023-05-23T03:43:07.436Z,100836.13
2023-05-23T03:45:37.941Z,100832.53
2023-05-23T03:48:05.153Z,100850.47
2023-05-23T03:50:32.290Z,100839.06
2023-05-23T03:52:59.483Z,100839.06
2023-05-23T03:55:34.571Z,100833.94
2023-05-23T03:58:01.819Z,100825.25
2023-05-23T04:00:31.138Z,100829.09
2023-05-23T04:02:58.569Z,100837.31
2023-05-23T04:05:26.430Z,100832.63
2023-05-23T04:07:53.779Z,100824.19
2023-05-23T04:10:20.863Z,100836.06
2023-05-23T04:12:48.243Z,100832.66
2023-05-23T04:15:15.506Z,100838.38
2023-05-23T04:17:43.944Z,100844.25
2023-05-23T04:20:13.597Z,100836.50
2023-05-23T04:22:41.342Z,100840.31
2023-05-23T04:25:09.556Z,100836.09
2023-05-23T04:27:42.186Z,100833.22
2023-05-23T04:30:10.183Z,100831.06
2023-05-23T04:32:40.938Z,100840.13
2023-05-23T04:35:13.611Z,100838.22
2023-05-23T04:37:42.608Z,100840.38
2023-05-23T04:40:13.588Z,100837.00
2023-05-23T04:42:44.697Z,100837.22
2023-05-23T04:45:15.377Z,100840.00
2023-05-23T04:47:47.789Z,100847.59
2023-05-23T04:50:18.466Z,100841.69
2023-05-23T04:52:47.858Z,100841.03
2023-05-23T04:55:14.936Z,100839.13
2023-05-23T04:57:41.847Z,100849.25
2023-05-23T05:00:12.849Z,100848.88
2023-05-23T05:02:41.852Z,100851.59
2023-05-23T05:05:09.549Z,100862.31
2023-05-23T05:07:39.289Z,100858.50
2023-05-23T05:10:16.949Z,100857.25
2023-05-23T05:12:51.059Z,100856.84
2023-05-23T05:15:19.545Z,100851.78
2023-05-23T05:17:49.733Z,100852.00
2023-05-23T05:20:19.536Z,100856.41
2023-05-23T05:22:49.727Z,100860.63
2023-05-23T05:25:19.088Z,100869.06
2023-05-23T05:27:46.168Z,100866.53
2023-05-23T05:30:13.915Z,100872.25
2023-05-23T05:32:42.221Z,100868.66
2023-05-23T05:35:10.137Z,100864.63
2023-05-23T05:37:41.792Z,100864.44
2023-05-23T05:40:10.017Z,100862.75
2023-05-23T05:42:39.283Z,100865.91
2023-05-23T05:45:11.512Z,100866.09
2023-05-23T05:47:38.885Z,100868.03
2023-05-23T05:50:08.823Z,100868.22
2023-05-23T05:52:38.838Z,100873.31
2023-05-23T05:55:11.502Z,100875.81
2023-05-23T05:57:40.041Z,100874.56
2023-05-23T06:00:14.804Z,100870.13
2023-05-23T06:02:43.211Z,100873.03
2023-05-23T06:05:17.019Z,100884.63
2023-05-23T06:07:51.749Z,100892.66
2023-05-23T06:10:21.383Z,100885.28
2023-05-23T06:12:48.681Z,100883.63
2023-05-23T06:15:16.217Z,100884.03
2023-05-23T06:17:44.888Z,100884.94
2023-05-23T06:20:12.459Z,100883.00
2023-05-23T06:22:42.127Z,100876.50
2023-05-23T06:25:09.441Z,100887.22
2023-05-23T06:27:38.743Z,100881.34
2023-05-23T06:30:06.773Z,100877.53
2023-05-23T06:32:33.852Z,100882.19
2023-05-23T06:35:00.801Z,100877.75
2023-05-23T06:37:32.205Z,100879.66
2023-05-23T06:39:59.244Z,100880.88
2023-05-23T06:42:27.174Z,100891.44
2023-05-23T06:44:54.178Z,100886.78
2023-05-23T06:47:23.700Z,100878.56
2023-05-23T06:49:50.778Z,100883.59
2023-05-23T06:52:20.425Z,100878.97
2023-05-23T06:54:51.148Z,100876.25
2023-05-23T06:57:18.274Z,100874.75
2023-05-23T06:59:47.585Z,100878.78
2023-05-23T07:02:16.898Z,100885.13
2023-05-23T07:04:49.575Z,100882.59
2023-05-23T07:07:16.557Z,100878.59
2023-05-23T07:09:43.607Z,100881.75
2023-05-23T07:12:10.599Z,100883.84
2023-05-23T07:14:40.606Z,100881.72
2023-05-23T07:17:07.767Z,100890.59
2023-05-23T07:19:37.004Z,100886.59
2023-05-23T07:22:08.906Z,100889.72
2023-05-23T07:24:37.232Z,100896.50
2023-05-23T07:27:04.518Z,100886.78
2023-05-23T07:29:33.644Z,100893.91
2023-05-23T07:32:03.257Z,100890.78
2023-05-23T07:34:30.764Z,100887.59
2023-05-23T07:36:57.899Z,100894.31
2023-05-23T07:39:25.786Z,100889.00
2023-05-23T07:41:52.708Z,100892.63
2023-05-23T07:44:24.858Z,100898.56
2023-05-23T07:46:52.520Z,100896.03
2023-05-23T07:49:21.768Z,100898.13
2023-05-23T07:51:51.335Z,100897.09
2023-05-23T07:54:18.354Z,100901.94
2023-05-23T07:56:50.021Z,100896.66
2023-05-23T07:59:19.555Z,100902.56
2023-05-23T08:01:50.709Z,100900.88
2023-05-23T08:04:18.646Z,100901.91
2023-05-23T08:07:00.652Z,100900.22
2023-05-23T08:09:31.645Z,100897.31
2023-05-23T08:11:58.684Z,100910.41
2023-05-23T08:14:38.771Z,100912.72
2023-05-23T08:17:16.535Z,100910.78
2023-05-23T08:19:46.185Z,100920.09
2023-05-23T08:22:15.502Z,100920.50
2023-05-23T08:24:42.524Z,100920.06
2023-05-23T08:27:09.748Z,100934.50
2023-05-23T08:29:37.322Z,100933.66
2023-05-23T08:32:06.927Z,100944.63
2023-05-23T08:34:38.541Z,100944.19
2023-05-23T08:37:07.892Z,100949.47
2023-05-23T08:39:42.084Z,100948.38
2023-05-23T08:42:09.166Z,100956.16
2023-05-23T08:44:38.726Z,100951.91
2023-05-23T08:47:05.926Z,100960.63
2023-05-23T08:49:35.810Z,100964.59
2023-05-23T08:52:10.877Z,100962.34
2023-05-23T08:54:42.161Z,100970.78
2023-05-23T08:57:09.185Z,100972.91
2023-05-23T08:59:38.850Z,100975.00
2023-05-23T09:02:13.797Z,100977.53
2023-05-23T09:04:43.153Z,100982.59
2023-05-23T09:07:12.044Z,100983.84
2023-05-23T09:09:39.492Z,100991.66
2023-05-23T09:12:06.892Z,100994.81
2023-05-23T09:14:34.033Z,101007.06
2023-05-23T09:17:04.620Z,101009.81
2023-05-23T09:19:32.254Z,101011.31
2023-05-23T09:22:05.625Z,101014.28
2023-05-23T09:24:38.905Z,101018.91
2023-05-23T09:27:07.425Z,101030.31
2023-05-23T09:29:41.596Z,101034.53
2023-05-23T09:32:20.021Z,101036.22
2023-05-23T09:35:05.751Z,101040.22
2023-05-23T09:37:40.865Z,101051.31
2023-05-23T09:40:14.486Z,101039.09
2023-05-23T09:42:46.345Z,101051.34
2023-05-23T09:45:15.489Z,101046.03
2023-05-23T09:47:52.988Z,101058.53
2023-05-23T09:50:23.645Z,101061.06
2023-05-23T09:52:54.348Z,101059.41
2023-05-23T09:55:25.972Z,101056.66
2023-05-23T09:57:58.963Z,101054.66
2023-05-23T10:00:27.271Z,101066.53
2023-05-23T10:03:10.707Z,101072.06
2023-05-23T10:05:52.844Z,101085.53
2023-05-23T10:08:40.404Z,101075.78
2023-05-23T10:11:35.637Z,101088.13
2023-05-23T10:14:10.863Z,101097.13
2023-05-23T10:17:07.010Z,101104.50
2023-05-23T10:19:52.256Z,101106.28
2023-05-23T10:22:20.068Z,101113.38
2023-05-23T10:24:48.924Z,101116.50
2023-05-23T10:27:16.132Z,101115.84
2023-05-23T10:29:46.842Z,101121.97
2023-05-23T10:32:15.110Z,101121.84
2023-05-23T10:35:04.567Z,101131.47
2023-05-23T10:38:00.081Z,101136.75
2023-05-23T10:40:26.980Z,101140.41
2023-05-23T10:43:08.173Z,101143.44
2023-05-23T10:45:44.481Z,101147.50
2023-05-23T10:48:36.407Z,101163.25
2023-05-23T10:51:06.892Z,101173.59
2023-05-23T10:53:40.059Z,101161.75
2023-05-23T10:56:19.622Z,101171.69
2023-05-23T10:58:46.710Z,101177.44
2023-05-23T11:01:20.069Z,101185.25
2023-05-23T11:03:48.186Z,101184.72
2023-05-23T11:06:38.486Z,101191.22
2023-05-23T11:09:27.788Z,101190.56
2023-05-23T11:12:05.827Z,101193.13
2023-05-23T11:14:33.792Z,101189.78
2023-05-23T11:17:22.025Z,101198.66
2023-05-23T11:20:13.420Z,101204.88
2023-05-23T11:22:42.324Z,101207.22
2023-05-23T11:25:10.392Z,101209.84
2023-05-23T11:27:41.897Z,101213.91
2023-05-23T11:30:15.899Z,101215.63
2023-05-23T11:32:53.979Z,101211.28
2023-05-23T11:35:23.860Z,101215.03
2023-05-23T11:37:50.992Z,101218.94
2023-05-23T11:40:28.228Z,101218.00
2023-05-23T11:43:08.279Z,101231.47
2023-05-23T11:45:37.858Z,101234.50
2023-05-23T11:48:18.103Z,101238.28
2023-05-23T11:50:49.372Z,101240.69
2023-05-23T11:53:19.144Z,101240.44
2023-05-23T11:56:00.818Z,101249.91
2023-05-23T11:58:33.702Z,101255.31
2023-05-23T12:01:09.726Z,101255.59
2023-05-23T12:03:52.465Z,101247.28
2023-05-23T12:06:20.144Z,101249.34
2023-05-23T12:08:52.380Z,101246.13
2023-05-23T12:11:19.399Z,101254.91
2023-05-23T12:13:46.533Z,101251.94
2023-05-23T12:16:16.710Z,101255.69
2023-05-23T12:18:46.440Z,101258.81
2023-05-23T12:21:13.454Z,101257.03
2023-05-23T12:23:42.112Z,101258.09
2023-05-23T12:26:10.324Z,101253.06
2023-05-23T12:28:45.809Z,101258.88
2023-05-23T12:31:21.410Z,101274.38
2023-05-23T12:33:49.609Z,101276.69
2023-05-23T12:36:24.364Z,101278.78
2023-05-23T12:38:54.061Z,101261.03
2023-05-23T12:41:22.178Z,101276.06
2023-05-23T12:43:56.989Z,101271.41
2023-05-23T12:46:29.442Z,101269.50
2023-05-23T12:49:01.335Z,101268.03
2023-05-23T12:51:30.960Z,101267.84
2023-05-23T12:54:00.485Z,101279.25
2023-05-23T12:58:57.093Z,101283.16
2023-05-23T13:01:24.509Z,101283.69
2023-05-23T13:03:57.047Z,101293.41
2023-05-23T13:06:26.644Z,101291.09
2023-05-23T13:08:56.280Z,101295.06
2023-05-23T13:11:23.310Z,101292.78
2023-05-23T13:13:54.071Z,101293.84
2023-05-23T13:16:21.250Z,101299.31
2023-05-23T13:18:48.503Z,101290.06
2023-05-23T13:21:18.296Z,101289.19
2023-05-23T13:23:48.436Z,101285.50
2023-05-23T13:26:15.655Z,101285.75
2023-05-23T13:28:42.783Z,101282.69
2023-05-23T13:31:09.984Z,101291.03
2023-05-23T13:33:38.176Z,101291.03
2023-05-23T13:36:05.678Z,101300.47
2023-05-23T13:38:32.633Z,101303.44
2023-05-23T13:40:59.776Z,101305.72
2023-05-23T13:43:31.425Z,101304.94
2023-05-23T13:46:02.813Z,101313.41
2023-05-23T13:48:32.470Z,101317.31
2023-05-23T13:50:59.621Z,101297.41
2023-05-23T13:53:27.509Z,101318.81
2023-05-23T13:55:54.895Z,101325.38
2023-05-23T13:58:21.909Z,101318.19
2023-05-23T14:00:48.942Z,101326.44
2023-05-23T14:03:20.208Z,101318.50
2023-05-23T14:05:49.672Z,101328.28
2023-05-23T14:08:16.850Z,101329.72
2023-05-23T14:10:44.100Z,101336.31
2023-05-23T14:13:12.012Z,101346.44
2023-05-23T14:15:42.651Z,101339.59
2023-05-23T14:18:12.736Z,101338.34
2023-05-23T14:20:39.909Z,101342.63
2023-05-23T14:23:07.047Z,101347.47
2023-05-23T14:25:34.119Z,101356.53
2023-05-23T14:28:01.321Z,101353.66
2023-05-23T14:30:28.338Z,101342.72
2023-05-23T14:32:57.890Z,101347.75
2023-05-23T14:35:26.290Z,101351.25
2023-05-23T14:37:55.686Z,101352.69
2023-05-23T14:40:24.934Z,101345.16
2023-05-23T14:42:52.341Z,101348.06
2023-05-23T14:45:22.434Z,101345.97
2023-05-23T14:47:56.668Z,101346.75
2023-05-23T14:50:23.659Z,101357.97
2023-05-23T14:52:50.687Z,101363.91
2023-05-23T14:55:17.771Z,101365.59
2023-05-23T14:57:44.744Z,101363.72
2023-05-23T15:00:13.337Z,101362.56
2023-05-23T15:02:40.497Z,101353.22
2023-05-23T15:05:08.716Z,101362.00
2023-05-23T15:07:36.044Z,101360.94
2023-05-23T15:10:04.122Z,101374.22
2023-05-23T15:12:31.183Z,101379.09
2023-05-23T15:15:03.540Z,101389.91
2023-05-23T15:17:35.441Z,101390.69
2023-05-23T15:20:04.438Z,101393.75
2023-05-23T15:22:39.400Z,101388.66
2023-05-23T15:25:08.384Z,101387.94
2023-05-23T15:27:38.633Z,101400.94
2023-05-23T15:30:06.730Z,101393.16
2023-05-23T15:32:34.052Z,101404.53
2023-05-23T15:35:01.095Z,101405.03
2023-05-23T15:37:28.095Z,101411.47
2023-05-23T15:39:57.065Z,101419.31
2023-05-23T15:42:24.154Z,101413.53
2023-05-23T15:44:51.241Z,101408.72
2023-05-23T15:47:18.875Z,101428.97
2023-05-23T15:49:45.953Z,101418.25
2023-05-23T15:52:13.308Z,101423.16
2023-05-23T15:54:40.563Z,101422.69
2023-05-23T15:57:11.082Z,101418.84
2023-05-23T15:59:41.566Z,101414.66
2023-05-23T16:02:11.462Z,101416.91
2023-05-23T16:04:44.058Z,101421.56
2023-05-23T16:07:12.309Z,101426.72
2023-05-23T16:10:00.871Z,101418.38
2023-05-23T16:12:33.673Z,101423.09
2023-05-23T16:15:13.880Z,101424.91
2023-05-23T16:18:52.754Z,101424.47
2023-05-23T16:21:24.791Z,101432.28
2023-05-23T16:23:51.796Z,101424.78
2023-05-23T16:26:19.321Z,101434.09
2023-05-23T16:28:46.485Z,101429.91
2023-05-23T16:31:21.604Z,101439.41
2023-05-23T16:33:51.114Z,101429.75
2023-05-23T16:36:22.031Z,101431.84
2023-05-23T16:38:55.567Z,101442.53
2023-05-23T16:41:23.094Z,101424.66
2023-05-23T16:43:57.249Z,101441.84
2023-05-23T16:46:24.424Z,101434.03
2023-05-23T16:48:54.523Z,101439.78
2023-05-23T16:51:21.790Z,101446.28
2023-05-23T16:53:51.190Z,101441.56
2023-05-23T16:56:18.266Z,101443.84
2023-05-23T16:58:49.893Z,101450.91
2023-05-23T17:01:19.954Z,101446.72
2023-05-23T17:03:50.396Z,101458.63
2023-05-23T17:06:24.163Z,101450.59
2023-05-23T17:08:54.490Z,101463.47
2023-05-23T17:11:21.886Z,101456.22
2023-05-23T17:13:53.513Z,101448.28
2023-05-23T17:16:20.917Z,101445.00
2023-05-23T17:18:48.564Z,101453.50
2023-05-23T17:21:15.795Z,101448.13
2023-05-23T17:23:45.149Z,101447.38
2023-05-23T17:26:12.229Z,101449.75
2023-05-23T17:28:39.552Z,101439.28
2023-05-23T17:31:08.943Z,101442.84
2023-05-23T17:33:38.909Z,101440.59
2023-05-23T17:36:11.470Z,101447.56
2023-05-23T17:38:39.345Z,101459.03
2023-05-23T17:41:09.283Z,101457.06
2023-05-23T17:43:39.177Z,101448.69
2023-05-23T17:46:08.572Z,101461.66
2023-05-23T17:48:47.068Z,101458.16
2023-05-23T17:51:15.967Z,101455.69
2023-05-23T17:53:43.319Z,101468.75
2023-05-23T17:56:10.919Z,101461.09
2023-05-23T17:58:43.232Z,101462.03
2023-05-23T18:01:14.510Z,101472.75
2023-05-23T18:03:44.371Z,101469.97
2023-05-23T18:06:11.685Z,101480.94
2023-05-23T18:08:38.601Z,101481.25
2023-05-23T18:11:08.924Z,101468.69
2023-05-23T18:13:38.557Z,101474.81
2023-05-23T18:16:07.986Z,101481.81
2023-05-23T18:18:37.846Z,101484.66
2023-05-23T18:21:08.645Z,101493.50
2023-05-23T18:23:37.876Z,101497.03
2023-05-23T18:26:05.036Z,101499.81
2023-05-23T18:28:38.693Z,101496.28
2023-05-23T18:31:05.734Z,101504.94
2023-05-23T18:33:34.535Z,101499.13
2023-05-23T18:36:04.303Z,101509.38
2023-05-23T18:38:34.496Z,101512.44
2023-05-23T18:41:01.666Z,101515.03
2023-05-23T18:43:30.521Z,101510.06
2023-05-23T18:45:58.172Z,101507.31
2023-05-23T18:48:26.076Z,101522.03
2023-05-23T18:50:53.909Z,101517.13
2023-05-23T18:53:21.213Z,101522.41
2023-05-23T18:55:48.217Z,101527.69
2023-05-23T18:58:15.978Z,101522.03
2023-05-23T19:00:44.905Z,101521.69
2023-05-23T19:03:13.130Z,101526.25
2023-05-23T19:05:42.973Z,101535.84
2023-05-23T19:08:13.049Z,101528.19
2023-05-23T19:10:42.321Z,101529.91
2023-05-23T19:13:11.091Z,101534.66
2023-05-23T19:15:38.718Z,101528.19
2023-05-23T19:18:05.833Z,101542.84
2023-05-23T19:20:33.281Z,101537.75
2023-05-23T19:23:01.255Z,101536.38
2023-05-23T19:25:28.472Z,101539.44
2023-05-23T19:27:55.777Z,101529.22
2023-05-23T19:30:25.382Z,101539.63
2023-05-23T19:33:01.244Z,101538.09
2023-05-23T19:35:31.439Z,101533.47
2023-05-23T19:38:01.478Z,101545.91
2023-05-23T19:40:28.685Z,101538.75
2023-05-23T19:43:00.351Z,101537.22
2023-05-23T19:45:28.662Z,101547.09
2023-05-23T19:47:57.608Z,101548.28
2023-05-23T19:50:26.854Z,101553.75
2023-05-23T19:52:53.923Z,101547.97
2023-05-23T19:55:23.329Z,101556.66
2023-05-23T19:57:50.652Z,101554.09
2023-05-23T20:00:18.352Z,101556.13
2023-05-23T20:02:48.332Z,101562.59
2023-05-23T20:05:18.831Z,101565.47
2023-05-23T20:07:48.289Z,101570.25
2023-05-23T20:10:18.254Z,101570.75
2023-05-23T20:12:45.360Z,101570.72
2023-05-23T20:15:12.359Z,101572.72
2023-05-23T20:17:39.414Z,101574.47
2023-05-23T20:20:07.641Z,101581.66
2023-05-23T20:22:34.766Z,101575.50
2023-05-23T20:25:07.807Z,101584.06
2023-05-23T20:27:34.789Z,101591.50
2023-05-23T20:30:01.943Z,101592.19
2023-05-23T20:32:28.911Z,101588.81
2023-05-23T20:35:01.050Z,101596.75
2023-05-23T20:37:30.693Z,101600.00
2023-05-23T20:39:58.082Z,101598.03
2023-05-23T20:42:26.705Z,101595.47
2023-05-23T20:44:56.936Z,101592.44
2023-05-23T20:47:26.260Z,101592.41
2023-05-23T20:49:56.183Z,101589.72
2023-05-23T20:52:26.239Z,101589.81
2023-05-23T20:54:55.846Z,101587.56
2023-05-23T20:57:25.550Z,101583.19
2023-05-23T20:59:59.771Z,101581.88
2023-05-23T21:02:27.116Z,101592.00
2023-05-23T21:04:56.605Z,101586.28
2023-05-23T21:07:23.603Z,101582.16
2023-05-23T21:09:52.993Z,101582.66
2023-05-23T21:12:22.352Z,101590.63
2023-05-23T21:14:54.130Z,101587.78
2023-05-23T21:17:23.962Z,101592.56
2023-05-23T21:19:51.369Z,101591.06
2023-05-23T21:22:20.772Z,101592.53
2023-05-23T21:24:52.653Z,101594.13
2023-05-23T21:27:21.933Z,101591.16
2023-05-23T21:29:48.884Z,101598.66
2023-05-23T21:32:18.393Z,101603.22
2023-05-23T21:34:49.953Z,101601.09
2023-05-23T21:37:17.048Z,101601.13
2023-05-23T21:39:52.096Z,101591.38
2023-05-23T21:42:24.704Z,101595.00
2023-05-23T21:44:51.779Z,101592.44
2023-05-23T21:47:21.160Z,101593.78
2023-05-23T21:49:48.158Z,101599.75
2023-05-23T21:52:19.621Z,101591.16
2023-05-23T21:54:51.744Z,101584.09
2023-05-23T21:57:21.069Z,101589.25
2023-05-23T21:59:50.649Z,101589.25
2023-05-23T22:02:17.807Z,101584.78
2023-05-23T22:04:46.133Z,101586.59
2023-05-23T22:07:13.192Z,101581.22
2023-05-23T22:09:44.622Z,101577.94
2023-05-23T22:12:14.476Z,101586.78
2023-05-23T22:14:41.548Z,101590.25
2023-05-23T22:17:14.239Z,101597.13
2023-05-23T22:19:41.894Z,101587.22
2023-05-23T22:22:09.908Z,101591.13
2023-05-23T22:24:36.901Z,101590.47
2023-05-23T22:27:04.209Z,101592.03
2023-05-23T22:29:31.303Z,101598.78
2023-05-23T22:32:00.847Z,101595.63
2023-05-23T22:34:30.410Z,101596.28
2023-05-23T22:36:59.830Z,101593.59
2023-05-23T22:39:27.609Z,101597.00
2023-05-23T22:42:01.989Z,101594.88
2023-05-23T22:44:34.045Z,101598.22
2023-05-23T22:47:03.696Z,101593.56
2023-05-23T22:49:32.997Z,101604.91
2023-05-23T22:52:04.924Z,101604.50
2023-05-23T22:54:34.089Z,101603.53
2023-05-23T22:57:01.238Z,101598.72
2023-05-23T22:59:30.004Z,101598.38
2023-05-23T23:01:59.142Z,101595.72
2023-05-23T23:04:30.781Z,101590.66
2023-05-23T23:07:02.660Z,101589.75
2023-05-23T23:09:29.677Z,101594.19
2023-05-23T23:11:56.739Z,101596.19
2023-05-23T23:14:26.742Z,101590.13
2023-05-23T23:16:54.472Z,101598.03
2023-05-23T23:19:22.064Z,101596.56
2023-05-23T23:21:54.186Z,101593.06
2023-05-23T23:24:24.104Z,101593.22
2023-05-23T23:26:51.111Z,101602.22
2023-05-23T23:29:20.326Z,101602.38
2023-05-23T23:31:52.855Z,101602.31
2023-05-23T23:34:19.848Z,101606.03
2023-05-23T23:36:46.779Z,101602.47
2023-05-23T23:39:13.796Z,101599.53
2023-05-23T23:41:43.351Z,101590.03
2023-05-23T23:44:13.005Z,101584.47
2023-05-23T23:46:40.109Z,101590.56
2023-05-23T23:49:09.212Z,101590.44
2023-05-23T23:51:38.446Z,101589.22
2023-05-23T23:54:05.536Z,101591.94
2023-05-23T23:56:36.516Z,101592.25
2023-05-23T23:59:06.122Z,101585.94
